Disclaimer

Please do not use the information listed here in-flight or in-navigation, as they are not provided to us by the airports but are provided by volunteers, so they might be outdated.

Search


Regions


Airport information page

Radio informations:
Tower (TWR) - 119.25 MHz

Airport informations:
Latitude: 61° 27' 42.07" N
Longitude: 021° 47' 59.94" E
Elevation: 44 feet - 13 meters
Operating hours: N/A
Operating agency: Civil government, landing fees and diplomatic clearance may be required
Timezone: UTC+2(+3DT) - Last Sunday in March to last Sunday in October
Fuel: Jet A1, without icing nhibitor.

100/130 MIL Spec, low lead, aviation gasoline (BLUE)

Runway information:
12/30 - 7713 x 197 feet< - >2351 x 60 meters
17/35 - 2628 x 98 feet< - >801 x 30 meters

Recent METARs:
EFPO 180850Z AUTO 02006KT 330V070 9999 FEW018/// 03/00 Q1039
EFPO 180920Z AUTO 03007KT 340V070 9999 BKN018/// 03/M01 Q1039
EFPO 180950Z AUTO 03007KT 340V080 9999 BKN019/// 03/M01 Q1039

Airport on the map: